NWS Home NWS Lubbock West Texas Mesonet Three hour changes as of 0236 AM, Sun Mar 24, 2019

Latest   N   C   S   Daily Sum   3hrΔ   24hrΔ   Soil Data 
Site Map   24hr Precip   72hr Precip   Google Plot


Station Time of Last Temp Now Temp 3h ago Delta-T Dewpoint Now Dewpoint 3hr ago Delta-Td 3hr Press Change (mB)
Reese Center  02:30 AM 45.8 48.6 -2.8 29 30.7 -1.7 -0.1
Abernathy  02:30 AM 42.7 47.7 -5 26.8 27.8 -1 0.3
Plainview  02:30 AM 44.5 53.2 -8.7 28.3 27.7 0.5 0.3
Tahoka  02:30 AM 44.9 53.8 -8.9 27.2 22.6 4.5 -0.3
Slaton  02:30 AM 49.7 49.6 0.2 26 26.4 -0.4 -0.4
Levelland  02:30 AM 41.4 50.5 -9.1 31.6 31.6 0.1 -0.2
Roaring Springs  02:30 AM 53.5 53.2 0.3 28.4 29.8 -1.4 -0.4
Floydada  02:30 AM 41.8 57.6 -15.8 25.3 20.7 4.7 0.2
Ralls  02:30 AM 47.6 47.7 -0.1 26.9 28.3 -1.4 -0.2
Brownfield  02:30 AM 47.9 53 -5.1 24.6 23 1.7 -0.2
Muleshoe  02:30 AM 40.2 49.1 -8.9 25.3 23 2.3 0.4
Morton  02:30 AM 43.1 50.6 -7.5 23.2 19.2 4 0.1
O'Donnell  02:30 AM 44.9 50.6 -5.7 28.8 25 3.8 -0.4
Seagraves  02:30 AM 43.1 46.2 -3.1 27.9 30.1 -2.1 -0.3
Amherst  02:30 AM 46.9 44.6 2.3 23.8 23.5 0.3 -0.1
Plains  02:30 AM 40.2 52.5 -12.3 28.2 22.9 5.3 -0.1
Lamesa  02:30 AM 45.9 51.5 -5.6 29.7 26.9 2.8 -0.1
Hart  02:30 AM 41.5 44.4 -2.9 27.8 27.1 0.7 0.4
Friona  02:30 AM 40.8 45.1 -4.3 31.9 31.7 0.2 0.8
Dimmitt  02:30 AM 45.1 48.3 -3.1 31.6 30 1.5 0.5
Tulia  02:30 AM 48.3 53.6 -5.4 26.8 26.4 0.4 0.3
Silverton  02:30 AM 47.4 51.1 -3.7 27.1 25.8 1.3 0.1
Post  02:30 AM 58 56.9 1 22.7 25.3 -2.6 -0.6
Seminole  02:25 AM 52 55.1 -3.1 20.6 22 -1.4 -0.4
Gail  02:30 AM 52.8 57 -4.2 27.2 27.6 -0.5 -0.4
White River Lake  02:30 AM 58.2 57.7 0.4 21 20.8 0.2 -0.3
Graham  02:30 AM 54.5 59.1 -4.5 25.2 24.3 0.9 -0.4
Sundown  02:30 AM 40 48.3 -8.3 26.5 26 0.4 -0.1
Anton  02:30 AM 42.1 47.8 -5.6 25.4 29.8 -4.4 0.2
Fluvanna  02:30 AM 49.9 54 -4.1 30.5 30.2 0.4 -0.3
Spur  02:30 AM 47 52 -5 28.4 27 1.4 -0.2
Northwest Lubbock  02:30 AM 48.8 53.5 -4.7 22.3 23.3 -1 -0.1
Guthrie  02:30 AM 53.7 57.4 -3.7 31 29.4 1.6 -0.3
Clarendon  02:30 AM 44.2 48.8 -4.6 35.6 37.5 -1.9 -0.4
Paducah  02:25 AM 57.2 55.7 1.5 29.2 30.5 -1.3 -0.4
Snyder  02:30 AM 51.7 56.9 -5.1 35.1 33.3 1.7 -0.2
Memphis  02:30 AM 45.7 56.5 -10.8 40.9 41.1 -0.2 -0.5
Jayton  02:30 AM 52.2 56.8 -4.6 32.7 31.8 1 -0.3
Pampa  02:30 AM 44.4 47.7 -3.3 35.8 37.4 -1.6 1.2
Aspermont  02:30 AM 53.6 56.8 -3.2 35 34.6 0.4 -0.3
Hereford  02:30 AM 42.2 46.8 -4.6 32.9 33.4 -0.5 0.8
Goodlett  02:30 AM 52 55.9 -4 40.8 42.7 -1.8 -0.6
McLean  02:30 AM 49.8 53.3 -3.5 37.9 36.7 1.1 -0.4
Denver City  02:30 AM 46.7 48.1 -1.3 19.2 21.1 -1.8 -0.1
Lake Alan Henry  02:30 AM 52.6 55.9 -3.3 32.3 31.1 1.1 -0.5
Wolfforth  02:30 AM 44.3 48.6 -4.3 25.2 24.4 0.8 -0.5
Andrews  02:30 AM 54.8 53.5 1.3 24.1 28.5 -4.4 -0.1
Turkey  02:30 AM 50 53.7 -3.7 29.1 29.6 -0.5 0.1
Childress  02:10 AM 50.6 58.1 -7.5 42.1 41.1 1 -0.6
Tatum  02:30 AM 40.5 46.2 -5.7 24.8 20.6 4.3 0.2
Northfield  01:40 AM 52.2 58.7 -6.4 36.3 25.3 11 0
Dora  02:30 AM 45.4 50.3 -4.8 18 16.4 1.6 0
Northwest San Angelo  02:30 AM 58.9 54 4.9 51.9 33.1 18.7 -0.4
Saint Lawrence  02:30 AM 58.7 55.2 3.5 55.1 27.3 27.8 -0.4
Haskell  02:30 AM 53.7 57.4 -3.8 47.7 36.7 11 -0.2
Wall  02:30 AM 61.9 66.5 -4.6 55.5 55.2 0.3 0
Seymour  02:30 AM 55 55.8 -0.8 52 40.6 11.4 -0.3
Knox City  02:30 AM 50.1 54.1 -4 37.5 38.8 -1.2 -0.3
Guadalupe Mtns Park  02:30 AM 56 58.7 -2.8 17.7 17 0.7 0.2
Caprock Canyons   02:30 AM 59.6 61.1 -1.5 21.5 22.6 -1 0.2
Odell  02:30 AM 54.3 55.7 -1.4 42.7 44.1 -1.4 -1.1
Coyanosa  02:30 AM 49.1 59 -10 33.4 29.5 3.9 -0.3
Big Lake  02:30 AM 56.5 60.5 -4.1 54.2 43 11.2 -0.4
Junction  02:30 AM 64.4 64.3 0.1 60.6 60.7 -0 0.3
Hobbs  02:30 AM 46.2 52.5 -6.3 20.1 18 2 0.2
Canadian  02:30 AM 46.7 48.8 -2 39.7 35.5 4.1 1.3
Palo Duro Canyon State Park Rim  02:30 AM 49 54.1 -5.1 32.6 35 -2.4 0.4
Bootleg  02:30 AM 44.8 47.9 -3.2 29.8 26.8 3 1.2
Sterling City  02:30 AM 60 46.5 13.6 53 33.6 19.4 -0.5
Mertzon  02:30 AM 53.2 56 -2.8 49.7 42.7 7 -0.7
Persimmon Gap  02:30 AM 63.8 65.8 -2.1 44.9 25.5 19.4 0.6
Weinert  02:30 AM 57.3 58.5 -1.2 50.8 35.4 15.4 -0.3
Claude 12 Southwest  02:30 AM 53.2 52.8 0.4 31.4 35 -3.7 0
Amarillo 7 South Southeast  02:30 AM 41.9 46.9 -5 35.6 37.7 -2.1 0.6
Umbarger  02:30 AM 44.1 48 -4 35.6 39 -3.4 0.7
Lomax  02:30 AM 51.8 50.4 1.4 32.3 33.6 -1.3 -0.1
Amarillo 9 North Northeast  02:30 AM 43.9 53.2 -9.2 37.4 37.1 0.2 1.2
Aiken  02:30 AM 41.5 46.4 -4.9 26.7 27.2 -0.6 0.3
Sweetwater  02:30 AM 58.3 59 -0.7 47.1 31.7 15.4 0
Dozier  02:30 AM 50.5 52.6 -2.1 41.6 41.3 0.3 -0.6
Amarillo 15 North Northwest  02:30 AM 44 51.6 -7.5 37.9 35.8 2 1.4
Menard  02:30 AM 63.7 63.9 -0.2 59.1 59.2 -0.1 0.6
Tarzan  02:30 AM 51.4 56.8 -5.4 35.3 31.1 4.2 -0.2
Goodnight  02:30 AM 50.7 51.3 -0.6 38.4 40.5 -2.1 -0.4
Boys Ranch   02:30 AM 44.7 46.2 -1.5 37.4 34.1 3.3 2.3
Fort McKavett  02:30 AM 62.4 63.2 -0.8 59.9 58.4 1.5 0.4
Fort Chadbourne  02:30 AM 52.7 54.9 -2.1 46.3 43.7 2.7 0.2
Palo Duro Canyon State Park Floor  02:30 AM 45.6 48.1 -2.5 37.2 41.2 -3.9 0.3
Fort Lancaster  02:30 AM 62.4 66.4 -4 59.6 57.6 2 -0.3
Dell City 1N  02:30 AM 47.1 52.4 -5.3 23.4 25.4 -1.9 0.2
Clyde  02:30 AM 57.1 60.1 -3 55.8 56.6 -0.7 -0.1
Snyder SSW  02:30 AM 52.1 57.9 -5.8 35.4 33.6 1.8 -0.1
Panhandle  02:30 AM 48.2 50 -1.9 37 38.7 -1.7 0.4
Vigo Park  02:30 AM 43.2 44.1 -0.9 28.9 30.1 -1.2 0
Welch  02:30 AM 41.9 49.3 -7.3 27.6 22.4 5.2 -0.2
Throckmorton  02:30 AM 59.6 61.6 -2 57.5 57.5 0 -0.4
Sierra Blanca  02:30 AM 57.8 58.2 -0.5 18.8 18.7 0.1 0.2
Fort Lewis CO  02:30 AM 32.7 34.2 -1.6 22.5 25.3 -2.8 -0.3
New Home  02:30 AM 47 54.1 -7.1 25.7 23.8 1.9 -0.4
McCamey  02:30 AM 61.1 60 1.2 55.7 40.6 15.1 -0.3
Stamford  02:30 AM 57.3 55.1 2.2 53.1 35.2 17.9 -0.1
Crowell  02:30 AM 51.3 56.4 -5 36.6 36.7 -0.1 -0.2
Stinnett  02:30 AM 42.1 50.9 -8.8 38.1 33.5 4.6 1.1
Colorado City  02:30 AM 51.8 56 -4.2 35.2 35.7 -0.5 0.1
Happy  02:30 AM 43.3 46.7 -3.3 34.6 36.2 -1.5 0.2
Endee  02:30 AM 42.8 51.4 -8.5 35.3 26.3 9 2
JA Ranch  02:30 AM 41.9 43.2 -1.4 35.6 37.5 -1.8 -0.4
Adrian  02:30 AM 41.1 52.4 -11.3 35.7 28.6 7.1 1.9
Lesley  02:30 AM 53.1 55 -2 41.4 41.4 0 -0.4
Earth  02:30 AM 48.8 60.4 -11.6 23.6 21.7 1.9 0.4
Van Horn  02:30 AM 52.2 57.6 -5.3 18.9 17.7 1.2 0.1
Rotan  02:30 AM 54 57.8 -3.8 33.4 33.7 -0.4 -0.3
Fritch  02:30 AM 45.4 50.6 -5.2 37.9 36.8 1.1 1.5
Estelline  02:30 AM 47.3 58.5 -11.2 39.9 39.8 0.1 -0.1
Crane  02:30 AM 62.2 64.3 -2.2 55.2 36 19.2 -0.4
Hackberry  02:30 AM 58.2 60 -1.8 33.7 33.2 0.6 -0.5
Romero 11 SSW  02:30 AM 42.1 51.4 -9.3 36.3 32.1 4.2 1.8
Palo Duro Reservoir 1NW  02:30 AM 40.2 47.6 -7.5 36.8 39 -2.2 0.8
South Plains 3ENE  02:30 AM 47.8 50.5 -2.7 25.8 26.5 -0.6 0.1
Lake McClellan 2NW  02:30 AM 53.1 53.7 -0.6 35.6 35.8 -0.2 -0.5
Segovia 7SSW  02:30 AM 62.9 62.9 0.1 59.3 59.8 -0.5 0.1
Olton  02:30 AM 43.2 44.6 -1.3 26.5 26.8 -0.3 0.3

West Texas Mesonet Home   Site Map/Menu  NWS Lubbock Soil Data  Daily Summary Page  24hr Precip  72hr Precip  Google Plot